createdAt,value
2022-11-21T00:00:00.754Z,0.2
2022-11-21T00:03:00.751Z,0.2
2022-11-21T00:06:00.776Z,0.2
2022-11-21T00:09:00.783Z,0.2
2022-11-21T00:12:00.831Z,0.2
2022-11-21T00:15:00.783Z,0.2
2022-11-21T00:18:00.788Z,0.2
2022-11-21T00:21:00.743Z,0.2
2022-11-21T00:24:00.766Z,0.3
2022-11-21T00:27:00.759Z,0.3
2022-11-21T00:30:00.826Z,0.3
2022-11-21T00:33:00.780Z,0.3
2022-11-21T00:36:00.757Z,0.3
2022-11-21T00:39:00.779Z,0.3
2022-11-21T00:42:00.785Z,0.3
2022-11-21T00:45:00.758Z,0.3
2022-11-21T00:48:00.783Z,0.3
2022-11-21T00:51:01.136Z,0.3
2022-11-21T00:54:00.730Z,0.3
2022-11-21T00:57:00.750Z,0.3
2022-11-21T01:00:00.779Z,0.3
2022-11-21T01:03:00.726Z,0.3
2022-11-21T01:06:00.874Z,0.4
2022-11-21T01:09:00.758Z,0.4
2022-11-21T01:12:00.740Z,0.4
2022-11-21T01:15:00.780Z,0.4
2022-11-21T01:18:00.764Z,0.4
2022-11-21T01:21:00.732Z,0.4
2022-11-21T01:24:00.769Z,0.4
2022-11-21T01:27:00.844Z,0.4
2022-11-21T01:30:00.867Z,0.4
2022-11-21T01:33:00.783Z,0.4
2022-11-21T01:36:00.814Z,0.4
2022-11-21T01:39:00.743Z,0.4
2022-11-21T01:42:00.808Z,0.4
2022-11-21T01:45:00.781Z,0.4
2022-11-21T01:48:00.764Z,0.4
2022-11-21T01:51:00.735Z,0.4
2022-11-21T01:54:00.789Z,0.4
2022-11-21T01:57:00.758Z,0.4
2022-11-21T02:00:00.857Z,0.4
2022-11-21T02:03:00.751Z,0.4
2022-11-21T02:06:00.773Z,0.4
2022-11-21T02:09:00.695Z,0.4
2022-11-21T02:12:00.770Z,0.4
2022-11-21T02:15:00.766Z,0.4
2022-11-21T02:18:00.847Z,0.4
2022-11-21T02:21:00.746Z,0.4
2022-11-21T02:24:00.969Z,0.4
2022-11-21T02:27:00.737Z,0.4
2022-11-21T02:30:00.784Z,0.4
2022-11-21T02:33:00.741Z,0.4
2022-11-21T02:36:00.800Z,0.4
2022-11-21T02:39:00.808Z,0.4
2022-11-21T02:42:00.797Z,0.4
2022-11-21T02:45:00.777Z,0.4
2022-11-21T02:48:04.623Z,0.4
2022-11-21T02:51:00.775Z,0.4
2022-11-21T02:54:00.793Z,0.4
2022-11-21T02:57:00.737Z,0.4
2022-11-21T03:00:00.814Z,0.4
2022-11-21T03:03:00.726Z,0.4
2022-11-21T03:06:00.756Z,0.4
2022-11-21T03:09:00.780Z,0.4
2022-11-21T03:12:00.873Z,0.4
2022-11-21T03:15:00.810Z,0.4
2022-11-21T03:18:00.910Z,0.4
2022-11-21T03:21:00.807Z,0.1
2022-11-21T03:24:00.782Z,0.1
2022-11-21T03:27:00.767Z,0.1
2022-11-21T03:30:00.756Z,0.1
2022-11-21T03:33:00.789Z,0.1
2022-11-21T03:36:00.871Z,-0.1
2022-11-21T03:39:00.855Z,-0.1
2022-11-21T03:42:00.756Z,-0.1
2022-11-21T03:45:00.749Z,-0.1
2022-11-21T03:48:00.784Z,-0.1
2022-11-21T03:51:00.779Z,-0.3
2022-11-21T03:54:00.777Z,-0.3
2022-11-21T03:57:00.781Z,-0.3
2022-11-21T04:00:00.765Z,-0.3
2022-11-21T04:03:00.794Z,-0.3
2022-11-21T04:06:00.745Z,-0.3
2022-11-21T04:09:00.752Z,-0.3
2022-11-21T04:12:07.620Z,-0.3
2022-11-21T04:15:00.747Z,-0.3
2022-11-21T04:18:00.813Z,-0.3
2022-11-21T04:21:00.782Z,-0.5
2022-11-21T04:24:00.767Z,-0.5
2022-11-21T04:27:00.793Z,-0.5
2022-11-21T04:30:00.837Z,-0.5
2022-11-21T04:33:00.756Z,-0.5
2022-11-21T04:36:00.752Z,-0.5
2022-11-21T04:39:00.765Z,-0.5
2022-11-21T04:42:00.742Z,-0.5
2022-11-21T04:45:00.801Z,-0.5
2022-11-21T04:48:00.806Z,-0.5
2022-11-21T04:51:00.817Z,-0.5
2022-11-21T04:54:00.799Z,-0.5
2022-11-21T04:57:00.725Z,-0.5
2022-11-21T05:00:00.906Z,-0.5
2022-11-21T05:03:00.762Z,-0.5
2022-11-21T05:06:00.901Z,-0.4
2022-11-21T05:09:00.815Z,-0.4
2022-11-21T05:12:00.755Z,-0.4
2022-11-21T05:15:00.773Z,-0.4
2022-11-21T05:18:00.780Z,-0.4
2022-11-21T05:21:00.730Z,-0.4
2022-11-21T05:24:00.820Z,-0.4
2022-11-21T05:27:00.733Z,-0.4
2022-11-21T05:30:00.775Z,-0.4
2022-11-21T05:33:00.740Z,-0.4
2022-11-21T05:36:00.830Z,-0.4
2022-11-21T05:39:00.772Z,-0.4
2022-11-21T05:42:03.494Z,-0.4
2022-11-21T05:45:00.735Z,-0.4
2022-11-21T05:48:00.951Z,-0.4
2022-11-21T05:51:00.727Z,-0.4
2022-11-21T05:54:00.751Z,-0.4
2022-11-21T05:57:00.767Z,-0.4
2022-11-21T06:00:00.863Z,-0.4
2022-11-21T06:03:00.858Z,-0.4
2022-11-21T06:06:00.844Z,-0.4
2022-11-21T06:09:00.723Z,-0.2
2022-11-21T06:12:00.749Z,-0.2
2022-11-21T06:15:00.787Z,-0.2
2022-11-21T06:18:00.836Z,-0.2
2022-11-21T06:21:00.778Z,-0.2
2022-11-21T06:24:00.783Z,-0.2
2022-11-21T06:27:00.798Z,-0.2
2022-11-21T06:30:00.809Z,-0.2
2022-11-21T06:33:00.863Z,-0.2
2022-11-21T06:36:00.770Z,-0.2
2022-11-21T06:39:00.793Z,-0.2
2022-11-21T06:42:00.702Z,-0.2
2022-11-21T06:45:00.892Z,-0.2
2022-11-21T06:48:00.765Z,-0.3
2022-11-21T06:51:00.805Z,-0.3
2022-11-21T06:54:00.870Z,-0.3
2022-11-21T06:57:00.840Z,-0.3
2022-11-21T07:00:00.962Z,-0.3
2022-11-21T07:03:03.670Z,-0.5
2022-11-21T07:06:00.871Z,-0.5
2022-11-21T07:09:33.876Z,-0.5
2022-11-21T07:12:00.868Z,-0.5
2022-11-21T07:15:00.896Z,-0.5
2022-11-21T07:18:00.835Z,-0.5
2022-11-21T07:21:00.855Z,-0.7
2022-11-21T07:24:00.889Z,-0.7
2022-11-21T07:27:00.880Z,-0.7
2022-11-21T07:30:00.828Z,-0.7
2022-11-21T07:33:00.858Z,-0.7
2022-11-21T07:36:00.815Z,-0.7
2022-11-21T07:39:00.851Z,-0.7
2022-11-21T07:42:00.795Z,-0.7
2022-11-21T07:45:00.826Z,-0.7
2022-11-21T07:48:00.781Z,-0.7
2022-11-21T07:51:00.923Z,-0.7
2022-11-21T07:54:00.780Z,-0.7
2022-11-21T07:57:00.791Z,-0.7
2022-11-21T08:00:00.997Z,-0.7
2022-11-21T08:03:00.769Z,-0.7
2022-11-21T08:06:00.828Z,-0.7
2022-11-21T08:09:00.896Z,-0.7
2022-11-21T08:12:00.832Z,-0.7
2022-11-21T08:15:00.863Z,-0.7
2022-11-21T08:18:00.835Z,-0.7
2022-11-21T08:21:00.785Z,-0.7
2022-11-21T08:24:00.766Z,-0.9
2022-11-21T08:27:00.877Z,-0.9
2022-11-21T08:30:00.953Z,-0.9
2022-11-21T08:33:00.828Z,-0.9
2022-11-21T08:36:00.813Z,-0.9
2022-11-21T08:39:00.865Z,-0.9
2022-11-21T08:42:00.820Z,-0.9
2022-11-21T08:45:00.900Z,-0.9
2022-11-21T08:48:00.814Z,-0.9
2022-11-21T08:51:01.435Z,-0.9
2022-11-21T08:54:00.819Z,-0.9
2022-11-21T08:57:00.868Z,-0.8
2022-11-21T09:00:00.885Z,-0.8
2022-11-21T09:03:00.914Z,-0.8
2022-11-21T09:06:00.858Z,-0.8
2022-11-21T09:09:00.812Z,-0.8
2022-11-21T09:12:00.834Z,-0.8
2022-11-21T09:15:00.847Z,-0.8
2022-11-21T09:18:00.834Z,-0.8
2022-11-21T09:21:00.864Z,-0.8
2022-11-21T09:24:00.851Z,-0.8
2022-11-21T09:27:00.806Z,-0.4
2022-11-21T09:30:00.943Z,-0.4
2022-11-21T09:33:00.882Z,-0.4
2022-11-21T09:36:00.821Z,-0.4
2022-11-21T09:39:00.901Z,-0.4
2022-11-21T09:42:00.830Z,-0.4
2022-11-21T09:45:00.869Z,-0.4
2022-11-21T09:48:00.936Z,-0.4
2022-11-21T09:51:00.792Z,-0.4
2022-11-21T09:54:00.922Z,-0.4
2022-11-21T09:57:00.780Z,-0.1
2022-11-21T10:00:00.868Z,-0.1
2022-11-21T10:03:00.813Z,-0.1
2022-11-21T10:06:00.893Z,-0.1
2022-11-21T10:09:00.825Z,-0.1
2022-11-21T10:12:00.848Z,-0.1
2022-11-21T10:15:00.804Z,-0.1
2022-11-21T10:21:00.832Z,0.1
2022-11-21T10:24:00.956Z,0.1
2022-11-21T10:27:00.833Z,0.1
2022-11-21T10:30:00.969Z,0.1
2022-11-21T10:33:00.871Z,0.1
2022-11-21T10:36:00.840Z,0.1
2022-11-21T10:39:00.872Z,0.1
2022-11-21T10:42:00.823Z,0.1
2022-11-21T10:45:00.876Z,0.1
2022-11-21T10:48:08.119Z,0.1
2022-11-21T10:51:00.816Z,0.1
2022-11-21T10:54:07.741Z,0.1
2022-11-21T10:57:00.846Z,0.3
2022-11-21T11:00:00.988Z,0.3
2022-11-21T11:03:00.842Z,0.4
2022-11-21T11:06:00.893Z,0.4
2022-11-21T11:09:00.901Z,0.4
2022-11-21T11:12:00.872Z,0.4
2022-11-21T11:15:00.896Z,0.4
2022-11-21T11:18:09.283Z,0.4
2022-11-21T11:21:00.836Z,0.4
2022-11-21T11:24:00.881Z,0.4
2022-11-21T11:27:01.012Z,0.4
2022-11-21T11:30:01.155Z,0.6
2022-11-21T11:33:01.739Z,0.6
2022-11-21T11:36:00.965Z,0.6
2022-11-21T11:39:00.853Z,0.6
2022-11-21T11:42:00.850Z,0.6
2022-11-21T11:45:00.871Z,0.6
2022-11-21T11:48:00.976Z,0.8
2022-11-21T11:51:00.870Z,0.8
2022-11-21T11:54:01.608Z,0.8
2022-11-21T11:57:00.803Z,0.8
2022-11-21T12:00:01.078Z,0.8
2022-11-21T12:03:00.765Z,0.8
2022-11-21T12:06:08.784Z,0.8
2022-11-21T12:09:00.947Z,0.8
2022-11-21T12:12:00.895Z,0.8
2022-11-21T12:15:00.997Z,0.9
2022-11-21T12:18:00.822Z,0.9
2022-11-21T12:21:00.843Z,0.9
2022-11-21T12:24:00.848Z,0.9
2022-11-21T12:27:01.022Z,0.9
2022-11-21T12:30:00.906Z,0.9
2022-11-21T12:33:08.736Z,0.9
2022-11-21T12:36:18.099Z,1.1
2022-11-21T12:39:00.884Z,1.1
2022-11-21T12:42:00.886Z,1.1
2022-11-21T12:45:00.808Z,1.1
2022-11-21T12:48:00.789Z,1.1
2022-11-21T12:51:00.800Z,1.1
2022-11-21T12:54:00.791Z,1.1
2022-11-21T12:57:01.239Z,1.3
2022-11-21T13:00:00.942Z,1.3
2022-11-21T13:06:02.051Z,1.3
2022-11-21T13:12:00.899Z,1.3
2022-11-21T13:15:01.141Z,1.3
2022-11-21T13:18:00.847Z,1.3
2022-11-21T13:21:00.833Z,1.3
2022-11-21T13:24:00.946Z,1.3
2022-11-21T13:27:01.189Z,1.3
2022-11-21T13:30:00.864Z,1.4
2022-11-21T13:33:00.810Z,1.4
2022-11-21T13:36:00.961Z,1.4
2022-11-21T13:39:00.938Z,1.4
2022-11-21T13:42:00.927Z,1.4
2022-11-21T13:45:00.848Z,1.4
2022-11-21T13:48:00.912Z,1.4
2022-11-21T13:51:00.817Z,1.4
2022-11-21T13:54:00.809Z,1.6
2022-11-21T13:57:00.862Z,1.6
2022-11-21T14:00:01.001Z,1.6
2022-11-21T14:03:00.800Z,1.6
2022-11-21T14:06:00.822Z,1.7
2022-11-21T14:09:00.828Z,1.7
2022-11-21T14:12:00.857Z,1.7
2022-11-21T14:15:00.811Z,1.7
2022-11-21T14:18:00.823Z,1.7
2022-11-21T14:21:00.963Z,1.7
2022-11-21T14:24:00.881Z,1.7
2022-11-21T14:27:00.886Z,1.7
2022-11-21T14:30:00.870Z,1.7
2022-11-21T14:33:00.862Z,1.7
2022-11-21T14:36:00.803Z,1.7
2022-11-21T14:39:37.958Z,1.7
2022-11-21T14:42:00.821Z,1.7
2022-11-21T14:45:00.837Z,1.7
2022-11-21T14:48:00.869Z,2
2022-11-21T14:51:02.024Z,2
2022-11-21T14:54:00.818Z,2
2022-11-21T14:57:00.904Z,2
2022-11-21T15:00:01.147Z,2
2022-11-21T15:03:00.980Z,2
2022-11-21T15:06:06.696Z,2
2022-11-21T15:12:00.892Z,2
2022-11-21T15:15:00.907Z,2
2022-11-21T15:18:28.080Z,2
2022-11-21T15:21:00.770Z,2
2022-11-21T15:24:00.828Z,2
2022-11-21T15:27:00.864Z,1.6
2022-11-21T15:30:00.888Z,1.6
2022-11-21T15:33:00.807Z,1.6
2022-11-21T15:36:00.838Z,1.6
2022-11-21T15:39:00.905Z,1.6
2022-11-21T15:42:00.800Z,1.4
2022-11-21T15:45:00.779Z,1.4
2022-11-21T15:48:00.815Z,1.3
2022-11-21T15:51:00.768Z,1.3
2022-11-21T15:54:00.840Z,1.3
2022-11-21T15:57:00.794Z,1.3
2022-11-21T16:00:00.821Z,1.3
2022-11-21T16:03:00.814Z,1.3
2022-11-21T16:06:00.965Z,1.3
2022-11-21T16:09:00.849Z,1.3
2022-11-21T16:12:00.789Z,1.3
2022-11-21T16:15:00.777Z,1.3
2022-11-21T16:18:00.840Z,1.3
2022-11-21T16:21:00.767Z,1.3
2022-11-21T16:24:00.811Z,1.3
2022-11-21T16:27:00.757Z,0.8
2022-11-21T16:30:00.819Z,0.8
2022-11-21T16:33:00.768Z,0.8
2022-11-21T16:36:00.777Z,0.8
2022-11-21T16:39:09.157Z,0.9
2022-11-21T16:42:00.819Z,0.9
2022-11-21T16:45:00.811Z,0.9
2022-11-21T16:48:00.795Z,0.9
2022-11-21T16:51:00.767Z,0.9
2022-11-21T16:54:09.019Z,1.3
2022-11-21T16:57:00.971Z,1.3
2022-11-21T17:00:01.083Z,1.3
2022-11-21T17:03:00.780Z,1.3
2022-11-21T17:06:00.817Z,1.3
2022-11-21T17:09:00.850Z,1.4
2022-11-21T17:12:00.798Z,1.4
2022-11-21T17:15:01.042Z,1.4
2022-11-21T17:18:00.815Z,1.4
2022-11-21T17:21:00.798Z,1.4
2022-11-21T17:24:00.792Z,1.4
2022-11-21T17:27:00.952Z,1.4
2022-11-21T17:30:00.810Z,1.4
2022-11-21T17:33:00.744Z,1.2
2022-11-21T17:36:00.872Z,1.2
2022-11-21T17:39:00.838Z,1.2
2022-11-21T17:42:00.893Z,1.1
2022-11-21T17:45:00.830Z,1.1
2022-11-21T17:48:00.788Z,1.1
2022-11-21T17:51:00.831Z,1.1
2022-11-21T17:54:00.855Z,1
2022-11-21T17:57:00.764Z,1
2022-11-21T18:00:00.821Z,1
2022-11-21T18:03:00.779Z,1
2022-11-21T18:06:00.782Z,1
2022-11-21T18:09:00.726Z,0.9
2022-11-21T18:12:00.793Z,0.9
2022-11-21T18:15:00.811Z,0.9
2022-11-21T18:18:00.919Z,0.9
2022-11-21T18:21:00.763Z,0.7
2022-11-21T18:24:01.549Z,0.7
2022-11-21T18:27:01.021Z,0.7
2022-11-21T18:30:00.879Z,0.7
2022-11-21T18:33:00.727Z,0.7
2022-11-21T18:36:00.841Z,0.7
2022-11-21T18:39:09.061Z,0.7
2022-11-21T18:42:00.796Z,0.7
2022-11-21T18:45:00.961Z,0.7
2022-11-21T18:48:00.917Z,0.7
2022-11-21T18:51:00.929Z,0.5
2022-11-21T18:54:00.791Z,0.5
2022-11-21T18:57:00.842Z,0.5
2022-11-21T19:00:00.920Z,0.5
2022-11-21T19:03:00.981Z,0.5
2022-11-21T19:06:00.743Z,0.5
2022-11-21T19:09:00.876Z,0.5
2022-11-21T19:12:00.817Z,0.5
2022-11-21T19:15:00.807Z,0.5
2022-11-21T19:18:00.872Z,0.5
2022-11-21T19:21:00.870Z,0.5
2022-11-21T19:24:00.910Z,0.4
2022-11-21T19:27:00.813Z,0.4
2022-11-21T19:30:00.782Z,0.4
2022-11-21T19:33:00.914Z,0.4
2022-11-21T19:36:00.858Z,0.4
2022-11-21T19:39:00.841Z,0.4
2022-11-21T19:42:00.810Z,0.4
2022-11-21T19:45:00.753Z,0.4
2022-11-21T19:48:00.906Z,0.3
2022-11-21T19:51:00.803Z,0.3
2022-11-21T19:54:00.798Z,0.3
2022-11-21T19:57:00.979Z,0.3
2022-11-21T20:00:00.900Z,0.3
2022-11-21T20:03:00.773Z,0.3
2022-11-21T20:06:00.746Z,0.3
2022-11-21T20:09:00.837Z,0.3
2022-11-21T20:12:00.826Z,0.3
2022-11-21T20:15:00.767Z,0.2
2022-11-21T20:18:00.831Z,0.2
2022-11-21T20:21:00.774Z,0.2
2022-11-21T20:24:00.800Z,0.2
2022-11-21T20:27:00.787Z,0.2
2022-11-21T20:30:00.880Z,0.2
2022-11-21T20:33:00.750Z,0.2
2022-11-21T20:36:00.898Z,0.2
2022-11-21T20:39:00.810Z,0.2
2022-11-21T20:42:00.772Z,0.2
2022-11-21T20:48:08.625Z,0.2
2022-11-21T20:54:04.208Z,0.2
2022-11-21T20:57:00.751Z,0.2
2022-11-21T21:00:00.921Z,0.2
2022-11-21T21:03:00.843Z,0.2
2022-11-21T21:06:07.230Z,-0.2
2022-11-21T21:09:00.777Z,-0.2
2022-11-21T21:12:00.793Z,-0.2
2022-11-21T21:15:00.998Z,-0.1
2022-11-21T21:18:00.821Z,-0.1
2022-11-21T21:21:17.157Z,-0.1
2022-11-21T21:24:00.765Z,-0.1
2022-11-21T21:27:00.719Z,-0.1
2022-11-21T21:30:00.835Z,-0.1
2022-11-21T21:33:00.786Z,-0.1
2022-11-21T21:36:00.783Z,-0.1
2022-11-21T21:39:01.046Z,-0.1
2022-11-21T21:42:00.805Z,-0.1
2022-11-21T21:45:01.316Z,-0.1
2022-11-21T21:48:00.801Z,-0.1
2022-11-21T21:51:00.774Z,-0.1
2022-11-21T21:54:00.771Z,-0.1
2022-11-21T21:57:00.815Z,-0.1
2022-11-21T22:00:00.833Z,-0.1
2022-11-21T22:03:00.752Z,-0.1
2022-11-21T22:06:00.815Z,-0.1
2022-11-21T22:09:00.774Z,-0.1
2022-11-21T22:12:00.837Z,-0.1
2022-11-21T22:15:00.836Z,0.2
2022-11-21T22:18:00.845Z,0.2
2022-11-21T22:21:00.814Z,0.2
2022-11-21T22:24:27.083Z,0.2
2022-11-21T22:27:00.747Z,0.3
2022-11-21T22:30:00.772Z,0.3
2022-11-21T22:33:00.735Z,0.3
2022-11-21T22:36:00.873Z,0.3
2022-11-21T22:39:00.840Z,0.3
2022-11-21T22:42:00.760Z,0.3
2022-11-21T22:45:00.823Z,0.3
2022-11-21T22:48:00.744Z,0.3
2022-11-21T22:51:00.776Z,0.3
2022-11-21T22:54:00.768Z,0.3
2022-11-21T22:57:00.840Z,0.3
2022-11-21T23:00:01.648Z,0.4
2022-11-21T23:03:00.719Z,0.4
2022-11-21T23:06:00.793Z,0.4
2022-11-21T23:09:00.777Z,0.5
2022-11-21T23:12:00.766Z,0.5
2022-11-21T23:15:00.821Z,0.5
2022-11-21T23:18:00.775Z,0.5
2022-11-21T23:21:00.798Z,0.5
2022-11-21T23:24:00.838Z,0.5
2022-11-21T23:27:00.767Z,0.5
2022-11-21T23:30:00.777Z,0.6
2022-11-21T23:33:00.841Z,0.6
2022-11-21T23:36:00.803Z,0.6
2022-11-21T23:39:00.751Z,0.6
2022-11-21T23:42:01.531Z,0.6
2022-11-21T23:45:00.878Z,0.6
2022-11-21T23:48:00.842Z,0.6
2022-11-21T23:51:00.741Z,0.6
2022-11-21T23:54:00.888Z,0.6
2022-11-21T23:57:00.763Z,0.6
